This is the latest recevied weather packets stored in our database for station/object W4KBW. If no packets are shown the sender has not sent any weather packets the latest 10 day(s).
| Time | Temp. | Humidity | Pressure | Rain* | Wind** | Luminosity | Snow |
|---|---|---|---|---|---|---|---|
| 1777755591 | 21.67° C | 100% | 1008.5 hPa | 1.78 mm | - | - | - |
| 1777754787 | 21.11° C | 100% | 1009.6 hPa | 2.03 mm | - | - | - |
| 1777754691 | 21.11° C | 100% | 1009.6 hPa | 2.03 mm | - | - | - |
| 1777753791 | 21.67° C | 100% | 1010.6 hPa | 3.81 mm | - | - | - |
| 1777752861 | 21.11° C | 100% | 1010.3 hPa | 4.57 mm | - | - | - |
| 1777752116 | 21.11° C | 100% | 1010.1 hPa | 4.32 mm | - | - | - |
| 1777751931 | 21.11° C | 100% | 1010.1 hPa | 4.32 mm | - | - | - |
| 1777751116 | 22.22° C | 100% | 1010.5 hPa | 3.81 mm | - | - | - |
| 1777751001 | 22.22° C | 100% | 1010.5 hPa | 3.81 mm | - | - | - |
| 1777750101 | 24.44° C | 100% | 1009.7 hPa | 0.76 mm | - | - | - |
| 1777749201 | 27.78° C | 100% | 1009.1 hPa | 0 mm | - | - | - |
| 1777748271 | 27.78° C | 100% | 1008.9 hPa | 0 mm | - | - | - |
| 1777747371 | 28.89° C | 100% | 1009.1 hPa | 0 mm | - | - | - |
| 1777746623 | 28.33° C | 100% | 1009 hPa | 0 mm | - | - | - |
| 1777746441 | 28.33° C | 100% | 1009 hPa | 0 mm | - | - | - |
| 1777745653 | 27.22° C | 100% | 1009 hPa | 0 mm | - | - | - |
| 1777745511 | 27.22° C | 100% | 1009 hPa | 0 mm | - | - | - |
| 1777744611 | 28.89° C | 100% | 1009.5 hPa | 0 mm | - | - | - |
| 1777743792 | 31.11° C | 100% | 1008.8 hPa | 0 mm | - | - | - |
| 1777743681 | 31.11° C | 100% | 1008.8 hPa | 0 mm | - | - | - |
| 1777742799 | 31.11° C | 100% | 1009 hPa | 0 mm | - | - | - |
| 1777742751 | 31.11° C | 100% | 1009 hPa | 0 mm | - | - | - |
| 1777741937 | 30.56° C | 100% | 1009 hPa | 0 mm | - | - | - |
| 1777741851 | 30.56° C | 100% | 1009 hPa | 0 mm | - | - | - |
| 1777741020 | 30.56° C | 100% | 1009.1 hPa | 0 mm | - | - | - |
* Rain latest hour (hover to see other rain measurements)
** Current wind speed in m/s (hover to see current wind gust speed)